Wetterdaten: Woche 07.08.17 - 13.08.17 (KW32)
Datum Zeit Temp. A. Pool Temp. Feuchte A. Luftdruck Regen Wind Richtung Sonnenschein ET UV Solar Taupunkt Windchill Windben Empfang
07.08.2017 00:00 14,7 C 24,4 C 96 % 1022,0 hPa 0,0 l/m 0,6 km/h (0 Bft) W-SW 0,00 h 0,000 mm 0,0 UV-I 0 W/m 14,2 C 14,7 C 2,0 km/h (1 Bft) 99,70 %
07.08.2017 01:00 14,6 C 24,4 C 96 % 1022,2 hPa 0,0 l/m 0,4 km/h (0 Bft) W-SW 0,00 h 0,000 mm 0,0 UV-I 0 W/m 14,0 C 14,6 C 1,5 km/h (1 Bft) 98,32 %
07.08.2017 02:00 14,6 C 24,4 C 96 % 1022,1 hPa 0,0 l/m 0,3 km/h (0 Bft) W-SW 0,00 h 0,000 mm 0,0 UV-I 0 W/m 14,0 C 14,6 C 1,3 km/h (1 Bft) 98,00 %
07.08.2017 03:00 14,6 C 24,0 C 96 % 1021,9 hPa 0,0 l/m 0,4 km/h (0 Bft) S-SW 0,00 h 0,000 mm 0,0 UV-I 0 W/m 14,0 C 14,6 C 1,0 km/h (0 Bft) 97,71 %
07.08.2017 04:00 14,5 C 23,9 C 96 % 1021,8 hPa 0,0 l/m 2,1 km/h (1 Bft) S-SW 0,00 h 0,000 mm 0,0 UV-I 0 W/m 13,8 C 14,5 C 3,7 km/h (1 Bft) 99,25 %
07.08.2017 05:00 14,4 C 23,9 C 96 % 1021,4 hPa 0,0 l/m 2,6 km/h (1 Bft) SW 0,00 h 0,000 mm 0,0 UV-I 6 W/m 13,8 C 14,4 C 4,4 km/h (1 Bft) 98,05 %
07.08.2017 06:00 14,5 C 23,9 C 96 % 1021,5 hPa 0,0 l/m 1,3 km/h (1 Bft) NO 0,00 h 0,000 mm 0,0 UV-I 26 W/m 13,8 C 14,5 C 2,5 km/h (1 Bft) 97,73 %
07.08.2017 07:00 14,8 C 23,9 C 96 % 1021,3 hPa 0,0 l/m 4,6 km/h (1 Bft) O-NO 0,03 h 0,025 mm 0,4 UV-I 104 W/m 14,1 C 14,7 C 7,1 km/h (2 Bft) 98,26 %
07.08.2017 08:00 15,8 C 23,9 C 93 % 1021,1 hPa 0,0 l/m 6,3 km/h (2 Bft) O-NO 0,87 h 0,051 mm 0,9 UV-I 311 W/m 14,6 C 15,5 C 9,9 km/h (2 Bft) 99,42 %
07.08.2017 09:00 17,3 C 23,9 C 87 % 1020,8 hPa 0,0 l/m 9,1 km/h (2 Bft) O-NO 1,00 h 0,178 mm 2,1 UV-I 585 W/m 15,1 C 16,1 C 14,4 km/h (3 Bft) 97,09 %
07.08.2017 10:00 18,8 C 23,9 C 81 % 1020,5 hPa 0,0 l/m 11,6 km/h (2 Bft) O-NO 0,97 h 0,330 mm 3,5 UV-I 685 W/m 15,4 C 16,8 C 17,2 km/h (3 Bft) 97,87 %
07.08.2017 11:00 19,9 C 24,1 C 72 % 1020,1 hPa 0,0 l/m 16,3 km/h (3 Bft) O-NO 1,00 h 0,407 mm 4,9 UV-I 807 W/m 14,8 C 16,9 C 24,0 km/h (4 Bft) 97,96 %
07.08.2017 12:00 20,8 C 24,4 C 61 % 1019,5 hPa 0,0 l/m 22,5 km/h (4 Bft) O-NO 1,00 h 0,508 mm 5,7 UV-I 852 W/m 13,0 C 16,8 C 31,6 km/h (5 Bft) 98,84 %
07.08.2017 13:00 21,6 C 24,4 C 57 % 1018,5 hPa 0,0 l/m 22,8 km/h (4 Bft) O-NO 1,00 h 0,609 mm 5,9 UV-I 854 W/m 12,7 C 17,8 C 32,1 km/h (5 Bft) 97,89 %
07.08.2017 14:00 22,2 C 24,5 C 55 % 1017,9 hPa 0,0 l/m 21,9 km/h (4 Bft) O-NO 1,00 h 0,635 mm 5,3 UV-I 806 W/m 12,7 C 18,8 C 31,7 km/h (5 Bft) 96,47 %
07.08.2017 15:00 22,7 C 25,0 C 57 % 1017,3 hPa 0,0 l/m 21,2 km/h (4 Bft) NO 1,00 h 0,610 mm 4,1 UV-I 709 W/m 13,6 C 19,5 C 30,4 km/h (5 Bft) 99,19 %
07.08.2017 16:00 22,7 C 25,0 C 57 % 1016,7 hPa 0,0 l/m 21,6 km/h (4 Bft) NO 1,00 h 0,559 mm 2,7 UV-I 575 W/m 13,8 C 19,5 C 31,4 km/h (5 Bft) 98,51 %
07.08.2017 17:00 22,9 C 25,0 C 57 % 1016,3 hPa 0,0 l/m 19,4 km/h (3 Bft) NO 1,00 h 0,482 mm 1,5 UV-I 416 W/m 14,0 C 20,0 C 27,8 km/h (4 Bft) 99,32 %
07.08.2017 18:00 22,4 C 25,0 C 57 % 1015,9 hPa 0,0 l/m 18,5 km/h (3 Bft) NO 1,00 h 0,381 mm 0,7 UV-I 253 W/m 13,5 C 19,6 C 26,8 km/h (4 Bft) 97,14 %
07.08.2017 19:00 21,7 C 24,7 C 59 % 1015,5 hPa 0,0 l/m 16,3 km/h (3 Bft) O-NO 1,00 h 0,280 mm 0,0 UV-I 101 W/m 13,4 C 19,1 C 23,3 km/h (4 Bft) 98,25 %
07.08.2017 20:00 20,4 C 24,4 C 64 % 1015,3 hPa 0,0 l/m 14,0 km/h (3 Bft) NO 0,28 h 0,152 mm 0,0 UV-I 15 W/m 13,3 C 18,0 C 19,9 km/h (4 Bft) 98,18 %
07.08.2017 21:00 18,7 C 24,3 C 70 % 1015,4 hPa 0,0 l/m 8,8 km/h (2 Bft) NO 0,00 h 0,076 mm 0,0 UV-I 0 W/m 13,2 C 17,7 C 14,6 km/h (3 Bft) 99,39 %
07.08.2017 22:00 17,7 C 23,9 C 73 % 1015,1 hPa 0,0 l/m 7,2 km/h (2 Bft) NO 0,00 h 0,051 mm 0,0 UV-I 0 W/m 12,8 C 17,2 C 11,8 km/h (2 Bft) 97,20 %
07.08.2017 23:00 17,0 C 23,9 C 75 % 1014,8 hPa 0,0 l/m 8,8 km/h (2 Bft) NO 0,00 h 0,025 mm 0,0 UV-I 0 W/m 12,5 C 15,9 C 14,1 km/h (3 Bft) 98,02 %
08.08.2017 00:00 16,4 C 23,9 C 77 % 1014,5 hPa 0,0 l/m 7,3 km/h (2 Bft) O-NO 0,00 h 0,000 mm 0,0 UV-I 0 W/m 12,3 C 15,8 C 11,7 km/h (2 Bft) 94,77 %
08.08.2017 01:00 15,5 C 23,4 C 80 % 1014,0 hPa 0,0 l/m 5,5 km/h (1 Bft) O-NO 0,00 h 0,025 mm 0,0 UV-I 0 W/m 12,1 C 15,2 C 8,6 km/h (2 Bft) 99,21 %
08.08.2017 02:00 14,5 C 23,3 C 84 % 1013,5 hPa 0,0 l/m 3,9 km/h (1 Bft) O-NO 0,00 h 0,026 mm 0,0 UV-I 0 W/m 11,9 C 14,5 C 6,4 km/h (2 Bft) 96,75 %
08.08.2017 03:00 14,7 C 23,3 C 83 % 1013,1 hPa 0,0 l/m 8,3 km/h (2 Bft) O-NO 0,00 h 0,000 mm 0,0 UV-I 0 W/m 12,0 C 13,6 C 13,1 km/h (3 Bft) 98,62 %
08.08.2017 04:00 14,4 C 23,1 C 85 % 1012,5 hPa 0,0 l/m 8,2 km/h (2 Bft) O-NO 0,00 h 0,025 mm 0,0 UV-I 0 W/m 11,9 C 13,4 C 13,6 km/h (3 Bft) 98,19 %
08.08.2017 05:00 14,0 C 22,8 C 87 % 1012,4 hPa 0,0 l/m 8,1 km/h (2 Bft) O-NO 0,00 h 0,026 mm 0,0 UV-I 8 W/m 11,8 C 13,0 C 13,4 km/h (3 Bft) 98,79 %
08.08.2017 06:00 13,9 C 22,8 C 88 % 1012,3 hPa 0,0 l/m 6,8 km/h (2 Bft) O-NO 0,87 h 0,025 mm 0,0 UV-I 68 W/m 11,9 C 13,4 C 11,4 km/h (2 Bft) 96,73 %
08.08.2017 07:00 15,2 C 22,8 C 86 % 1011,8 hPa 0,0 l/m 10,2 km/h (2 Bft) O-NO 1,00 h 0,051 mm 0,5 UV-I 217 W/m 12,8 C 13,2 C 15,9 km/h (3 Bft) 99,03 %
08.08.2017 08:00 17,2 C 22,8 C 81 % 1011,7 hPa 0,0 l/m 13,5 km/h (3 Bft) O-NO 1,00 h 0,127 mm 1,1 UV-I 391 W/m 13,8 C 14,4 C 19,5 km/h (3 Bft) 98,51 %
08.08.2017 09:00 19,4 C 22,8 C 76 % 1011,5 hPa 0,0 l/m 11,9 km/h (2 Bft) NO 1,00 h 0,254 mm 2,3 UV-I 554 W/m 14,9 C 17,3 C 17,9 km/h (3 Bft) 96,95 %
08.08.2017 10:00 21,3 C 22,8 C 71 % 1011,1 hPa 0,0 l/m 11,3 km/h (2 Bft) NO 1,00 h 0,355 mm 3,8 UV-I 691 W/m 15,9 C 19,8 C 17,8 km/h (3 Bft) 98,23 %
08.08.2017 11:00 23,2 C 23,2 C 67 % 1010,6 hPa 0,0 l/m 12,8 km/h (3 Bft) NO 1,00 h 0,458 mm 5,2 UV-I 791 W/m 16,6 C 21,7 C 18,8 km/h (3 Bft) 99,71 %
08.08.2017 12:00 24,6 C 23,3 C 63 % 1009,8 hPa 0,0 l/m 16,8 km/h (3 Bft) O-NO 1,00 h 0,533 mm 6,0 UV-I 834 W/m 17,1 C 22,6 C 24,2 km/h (4 Bft) 98,35 %
08.08.2017 13:00 25,9 C 23,8 C 61 % 1009,3 hPa 0,0 l/m 17,8 km/h (3 Bft) O-NO 1,00 h 0,610 mm 6,2 UV-I 846 W/m 17,8 C 24,0 C 24,6 km/h (4 Bft) 97,24 %
08.08.2017 14:00 27,2 C 23,9 C 58 % 1008,7 hPa 0,0 l/m 17,8 km/h (3 Bft) NO 1,00 h 0,635 mm 5,5 UV-I 798 W/m 18,1 C 25,7 C 25,7 km/h (4 Bft) 97,92 %
08.08.2017 15:00 27,8 C 24,4 C 55 % 1008,6 hPa 0,0 l/m 17,0 km/h (3 Bft) NO 1,00 h 0,635 mm 4,2 UV-I 673 W/m 17,9 C 26,5 C 25,0 km/h (4 Bft) 99,42 %
08.08.2017 16:00 28,1 C 24,4 C 54 % 1008,5 hPa 0,0 l/m 16,5 km/h (3 Bft) NO 1,00 h 0,558 mm 2,8 UV-I 509 W/m 17,7 C 26,9 C 23,7 km/h (4 Bft) 97,78 %
08.08.2017 17:00 27,6 C 24,4 C 54 % 1008,4 hPa 0,0 l/m 17,3 km/h (3 Bft) O-NO 0,77 h 0,458 mm 1,4 UV-I 318 W/m 17,5 C 26,2 C 24,8 km/h (4 Bft) 97,72 %
08.08.2017 18:00 26,8 C 24,5 C 58 % 1008,5 hPa 0,0 l/m 12,5 km/h (3 Bft) O-NO 0,77 h 0,330 mm 0,7 UV-I 243 W/m 17,9 C 25,8 C 18,6 km/h (3 Bft) 98,43 %
08.08.2017 19:00 25,5 C 24,4 C 62 % 1009,2 hPa 0,0 l/m 10,4 km/h (2 Bft) O-NO 0,53 h 0,228 mm 0,0 UV-I 82 W/m 17,7 C 24,7 C 15,7 km/h (3 Bft) 99,04 %
08.08.2017 20:00 23,8 C 24,4 C 69 % 1010,0 hPa 0,0 l/m 3,7 km/h (1 Bft) NO 0,17 h 0,127 mm 0,0 UV-I 16 W/m 17,8 C 23,7 C 6,9 km/h (2 Bft) 97,64 %
08.08.2017 21:00 22,4 C 24,4 C 75 % 1010,5 hPa 0,0 l/m 2,7 km/h (1 Bft) O-NO 0,00 h 0,026 mm 0,0 UV-I 0 W/m 17,6 C 22,4 C 4,8 km/h (1 Bft) 97,59 %
08.08.2017 22:00 21,7 C 24,4 C 77 % 1011,6 hPa 0,0 l/m 6,3 km/h (2 Bft) W-SW 0,00 h 0,025 mm 0,0 UV-I 0 W/m 17,5 C 21,2 C 11,2 km/h (2 Bft) 98,65 %
08.08.2017 23:00 21,1 C 24,3 C 73 % 1014,1 hPa 0,4 l/m 22,0 km/h (4 Bft) W-SW 0,00 h 0,026 mm 0,0 UV-I 0 W/m 16,1 C 17,5 C 35,6 km/h (5 Bft) 99,17 %
09.08.2017 00:00 17,5 C 23,9 C 88 % 1016,2 hPa 0,2 l/m 12,4 km/h (3 Bft) W-SW 0,00 h 0,000 mm 0,0 UV-I 0 W/m 15,5 C 15,1 C 19,6 km/h (3 Bft) 97,37 %
09.08.2017 01:00 17,0 C 23,9 C 87 % 1016,2 hPa 0,0 l/m 5,5 km/h (1 Bft) S 0,00 h 0,025 mm 0,0 UV-I 0 W/m 14,9 C 16,8 C 9,2 km/h (2 Bft) 98,23 %
09.08.2017 02:00 16,9 C 23,9 C 86 % 1015,0 hPa 0,0 l/m 3,8 km/h (1 Bft) O-SO 0,00 h 0,026 mm 0,0 UV-I 0 W/m 14,6 C 16,9 C 6,3 km/h (2 Bft) 98,65 %
09.08.2017 03:00 16,7 C 23,9 C 87 % 1013,9 hPa 0,0 l/m 5,1 km/h (1 Bft) O-NO 0,00 h 0,000 mm 0,0 UV-I 0 W/m 14,5 C 16,5 C 7,9 km/h (2 Bft) 99,57 %
09.08.2017 04:00 15,8 C 23,6 C 90 % 1013,7 hPa 0,0 l/m 2,0 km/h (1 Bft) O-NO 0,00 h 0,025 mm 0,0 UV-I 0 W/m 14,3 C 15,8 C 4,6 km/h (1 Bft) 96,46 %
09.08.2017 05:00 15,6 C 23,3 C 94 % 1014,7 hPa 0,0 l/m 2,1 km/h (1 Bft) N-NO 0,00 h 0,000 mm 0,0 UV-I 8 W/m 14,6 C 15,6 C 5,6 km/h (1 Bft) 99,21 %
09.08.2017 06:00 16,0 C 23,3 C 94 % 1016,2 hPa 0,0 l/m 2,1 km/h (1 Bft) W 0,10 h 0,000 mm 0,0 UV-I 15 W/m 15,1 C 16,0 C 5,0 km/h (1 Bft) 98,42 %
09.08.2017 07:00 16,4 C 23,3 C 93 % 1016,5 hPa 0,0 l/m 3,5 km/h (1 Bft) S-SO 0,00 h 0,000 mm 0,0 UV-I 94 W/m 15,2 C 16,4 C 7,3 km/h (2 Bft) 98,90 %
09.08.2017 08:00 17,4 C 23,3 C 90 % 1016,4 hPa 0,0 l/m 3,4 km/h (1 Bft) SO 0,00 h 0,051 mm 0,6 UV-I 104 W/m 15,6 C 17,4 C 6,7 km/h (2 Bft) 96,44 %
09.08.2017 09:00 18,5 C 23,3 C 85 % 1015,5 hPa 0,0 l/m 8,0 km/h (2 Bft) O 0,03 h 0,076 mm 1,3 UV-I 215 W/m 15,9 C 17,7 C 12,9 km/h (3 Bft) 99,23 %
09.08.2017 10:00 20,4 C 23,3 C 78 % 1015,1 hPa 0,0 l/m 12,3 km/h (3 Bft) O-NO 0,30 h 0,153 mm 2,7 UV-I 380 W/m 16,4 C 18,4 C 18,2 km/h (3 Bft) 98,28 %
09.08.2017 11:00 22,4 C 23,3 C 68 % 1014,5 hPa 0,0 l/m 17,1 km/h (3 Bft) NO 0,87 h 0,304 mm 4,5 UV-I 692 W/m 16,1 C 19,8 C 24,7 km/h (4 Bft) 98,23 %
09.08.2017 12:00 24,1 C 23,7 C 63 % 1013,8 hPa 0,0 l/m 17,9 km/h (3 Bft) NO 1,00 h 0,508 mm 5,5 UV-I 800 W/m 16,7 C 21,8 C 26,0 km/h (4 Bft) 96,45 %
09.08.2017 13:00 25,3 C 23,9 C 60 % 1013,0 hPa 0,0 l/m 18,8 km/h (3 Bft) NO 1,00 h 0,585 mm 5,6 UV-I 805 W/m 16,8 C 23,2 C 27,1 km/h (4 Bft) 99,05 %
09.08.2017 14:00 26,0 C 24,3 C 57 % 1012,2 hPa 0,0 l/m 20,2 km/h (4 Bft) O-NO 1,00 h 0,609 mm 5,0 UV-I 760 W/m 16,8 C 24,0 C 28,4 km/h (4 Bft) 98,39 %
09.08.2017 15:00 26,9 C 24,4 C 58 % 1011,4 hPa 0,0 l/m 17,2 km/h (3 Bft) NO 1,00 h 0,610 mm 3,9 UV-I 670 W/m 17,8 C 25,4 C 24,4 km/h (4 Bft) 97,75 %
09.08.2017 16:00 27,8 C 24,8 C 56 % 1010,8 hPa 0,0 l/m 17,5 km/h (3 Bft) O-NO 1,00 h 0,533 mm 2,5 UV-I 528 W/m 18,2 C 26,5 C 25,2 km/h (4 Bft) 97,28 %
09.08.2017 17:00 28,2 C 25,0 C 57 % 1010,2 hPa 0,0 l/m 15,7 km/h (3 Bft) NO 1,00 h 0,457 mm 1,4 UV-I 382 W/m 18,9 C 27,1 C 22,8 km/h (4 Bft) 98,50 %
09.08.2017 18:00 28,0 C 25,0 C 60 % 1009,8 hPa 0,0 l/m 9,0 km/h (2 Bft) NO 0,63 h 0,356 mm 0,6 UV-I 191 W/m 19,5 C 27,7 C 14,0 km/h (3 Bft) 99,29 %
09.08.2017 19:00 26,5 C 25,0 C 66 % 1009,6 hPa 0,0 l/m 3,7 km/h (1 Bft) O-NO 0,00 h 0,178 mm 0,0 UV-I 46 W/m 19,6 C 26,5 C 6,2 km/h (2 Bft) 96,23 %
09.08.2017 20:00 24,3 C 25,0 C 76 % 1009,7 hPa 0,0 l/m 2,4 km/h (1 Bft) O-NO 0,03 h 0,051 mm 0,0 UV-I 8 W/m 19,7 C 24,3 C 4,0 km/h (1 Bft) 98,53 %
09.08.2017 21:00 22,5 C 24,9 C 83 % 1010,3 hPa 0,0 l/m 3,9 km/h (1 Bft) S-SW 0,00 h 0,025 mm 0,0 UV-I 0 W/m 19,4 C 22,4 C 6,2 km/h (2 Bft) 97,98 %
09.08.2017 22:00 22,2 C 24,4 C 82 % 1011,6 hPa 0,0 l/m 12,5 km/h (3 Bft) W-SW 0,00 h 0,025 mm 0,0 UV-I 0 W/m 19,0 C 20,6 C 18,7 km/h (3 Bft) 99,65 %
09.08.2017 23:00 21,6 C 24,4 C 83 % 1013,7 hPa 0,2 l/m 8,6 km/h (2 Bft) SW 0,00 h 0,051 mm 0,0 UV-I 0 W/m 18,5 C 20,6 C 14,5 km/h (3 Bft) 96,79 %
10.08.2017 00:00 20,4 C 24,4 C 87 % 1014,4 hPa 0,0 l/m 9,2 km/h (2 Bft) W-SW 0,00 h 0,000 mm 0,0 UV-I 0 W/m 18,2 C 19,3 C 14,4 km/h (3 Bft) 98,53 %
10.08.2017 01:00 19,7 C 24,4 C 90 % 1013,9 hPa 0,0 l/m 5,5 km/h (1 Bft) O 0,00 h 0,025 mm 0,0 UV-I 0 W/m 17,9 C 19,2 C 8,4 km/h (2 Bft) 98,66 %
10.08.2017 02:00 19,6 C 24,3 C 90 % 1013,3 hPa 0,0 l/m 13,0 km/h (3 Bft) O-NO 0,00 h 0,000 mm 0,0 UV-I 0 W/m 17,9 C 17,3 C 19,4 km/h (3 Bft) 99,79 %
10.08.2017 03:00 19,4 C 23,9 C 87 % 1012,0 hPa 0,0 l/m 7,0 km/h (2 Bft) O-SO 0,00 h 0,026 mm 0,0 UV-I 0 W/m 17,2 C 18,9 C 11,3 km/h (2 Bft) 96,26 %
10.08.2017 04:00 18,2 C 23,9 C 90 % 1011,8 hPa 0,0 l/m 0,6 km/h (0 Bft) O-SO 0,00 h 0,025 mm 0,0 UV-I 0 W/m 16,5 C 18,2 C 1,8 km/h (1 Bft) 98,70 %
10.08.2017 05:00 17,6 C 23,9 C 94 % 1012,6 hPa 0,0 l/m 2,1 km/h (1 Bft) SW 0,00 h 0,000 mm 0,0 UV-I 7 W/m 16,6 C 17,6 C 5,1 km/h (1 Bft) 98,31 %
10.08.2017 06:00 17,8 C 23,9 C 94 % 1013,1 hPa 0,0 l/m 5,9 km/h (2 Bft) S-SW 0,93 h 0,000 mm 0,0 UV-I 75 W/m 16,7 C 17,6 C 9,4 km/h (2 Bft) 99,35 %
10.08.2017 07:00 18,7 C 23,9 C 92 % 1013,7 hPa 0,0 l/m 8,0 km/h (2 Bft) W-SW 0,47 h 0,051 mm 0,0 UV-I 105 W/m 17,3 C 17,9 C 12,3 km/h (3 Bft) 96,01 %
10.08.2017 08:00 18,8 C 23,9 C 91 % 1014,2 hPa 0,0 l/m 5,8 km/h (1 Bft) SW 0,10 h 0,076 mm 0,8 UV-I 112 W/m 17,3 C 18,7 C 9,1 km/h (2 Bft) 99,04 %
10.08.2017 09:00 19,7 C 23,9 C 87 % 1014,5 hPa 0,0 l/m 6,0 km/h (2 Bft) SW 0,10 h 0,076 mm 1,0 UV-I 186 W/m 17,4 C 19,2 C 9,6 km/h (2 Bft) 97,53 %
10.08.2017 10:00 19,9 C 23,9 C 85 % 1014,2 hPa 0,0 l/m 1,5 km/h (1 Bft) W 0,00 h 0,127 mm 1,1 UV-I 180 W/m 17,4 C 19,9 C 3,4 km/h (1 Bft) 99,42 %
10.08.2017 11:00 20,7 C 23,9 C 82 % 1013,2 hPa 0,0 l/m 2,1 km/h (1 Bft) W 0,20 h 0,102 mm 2,8 UV-I 386 W/m 17,5 C 20,7 C 4,6 km/h (1 Bft) 95,55 %
10.08.2017 12:00 21,9 C 23,9 C 78 % 1012,5 hPa 0,0 l/m 2,0 km/h (1 Bft) N-NW 0,70 h 0,229 mm 3,5 UV-I 485 W/m 17,9 C 21,9 C 5,1 km/h (1 Bft) 98,65 %
10.08.2017 13:00 22,3 C 23,9 C 79 % 1012,0 hPa 0,0 l/m 3,1 km/h (1 Bft) NO 0,43 h 0,304 mm 3,3 UV-I 466 W/m 18,4 C 22,3 C 5,6 km/h (1 Bft) 97,57 %
10.08.2017 14:00 23,4 C 24,3 C 75 % 1012,1 hPa 0,0 l/m 2,9 km/h (1 Bft) W-SW 0,43 h 0,305 mm 2,7 UV-I 394 W/m 18,6 C 23,3 C 5,9 km/h (2 Bft) 99,65 %
10.08.2017 15:00 22,0 C 24,4 C 81 % 1012,9 hPa 1,8 l/m 11,3 km/h (2 Bft) W 0,00 h 0,229 mm 0,7 UV-I 51 W/m 18,6 C 20,5 C 17,6 km/h (3 Bft) 96,30 %
10.08.2017 16:00 21,3 C 24,3 C 88 % 1011,4 hPa 0,2 l/m 5,8 km/h (2 Bft) O-SO 0,73 h 0,076 mm 1,8 UV-I 380 W/m 19,2 C 20,9 C 10,9 km/h (2 Bft) 98,76 %
10.08.2017 17:00 22,1 C 24,4 C 83 % 1011,7 hPa 0,0 l/m 4,2 km/h (1 Bft) W 0,33 h 0,254 mm 1,0 UV-I 224 W/m 19,0 C 22,0 C 7,4 km/h (2 Bft) 97,98 %
10.08.2017 18:00 21,2 C 24,4 C 84 % 1012,2 hPa 0,0 l/m 5,7 km/h (1 Bft) W-SW 0,00 h 0,152 mm 0,0 UV-I 52 W/m 18,4 C 21,0 C 9,5 km/h (2 Bft) 99,50 %
10.08.2017 19:00 19,6 C 24,4 C 91 % 1014,1 hPa 6,6 l/m 11,8 km/h (2 Bft) W-SW 0,00 h 0,051 mm 0,0 UV-I 6 W/m 18,1 C 17,8 C 18,4 km/h (3 Bft) 97,10 %
10.08.2017 20:00 17,8 C 23,9 C 94 % 1013,3 hPa 0,2 l/m 6,1 km/h (2 Bft) W-SW 0,00 h 0,026 mm 0,0 UV-I 5 W/m 16,9 C 17,4 C 11,3 km/h (2 Bft) 97,89 %
10.08.2017 21:00 17,0 C 23,9 C 94 % 1014,5 hPa 0,2 l/m 12,7 km/h (3 Bft) W-SW 0,00 h 0,000 mm 0,0 UV-I 0 W/m 15,9 C 14,5 C 19,9 km/h (4 Bft) 97,73 %
10.08.2017 22:00 14,7 C 23,9 C 91 % 1015,7 hPa 0,0 l/m 18,9 km/h (3 Bft) W-SW 0,00 h 0,025 mm 0,0 UV-I 0 W/m 13,3 C 9,7 C 28,8 km/h (4 Bft) 99,51 %
10.08.2017 23:00 13,9 C 23,7 C 91 % 1016,2 hPa 0,0 l/m 17,8 km/h (3 Bft) SW 0,00 h 0,025 mm 0,0 UV-I 0 W/m 12,6 C 9,1 C 27,5 km/h (4 Bft) 96,27 %
11.08.2017 00:00 13,6 C 23,3 C 91 % 1016,2 hPa 0,0 l/m 12,6 km/h (3 Bft) W-SW 0,00 h 0,000 mm 0,0 UV-I 0 W/m 12,1 C 10,5 C 19,7 km/h (3 Bft) 98,96 %
11.08.2017 01:00 13,5 C 23,3 C 91 % 1015,7 hPa 0,0 l/m 9,1 km/h (2 Bft) W-SW 0,00 h 0,025 mm 0,0 UV-I 0 W/m 12,0 C 12,0 C 14,9 km/h (3 Bft) 97,57 %
11.08.2017 02:00 13,6 C 23,3 C 91 % 1014,9 hPa 0,0 l/m 6,3 km/h (2 Bft) W-SW 0,00 h 0,026 mm 0,0 UV-I 0 W/m 12,1 C 13,1 C 10,2 km/h (2 Bft) 99,51 %
11.08.2017 03:00 13,6 C 23,3 C 91 % 1014,3 hPa 0,0 l/m 4,3 km/h (1 Bft) W 0,00 h 0,000 mm 0,0 UV-I 0 W/m 12,2 C 13,6 C 7,1 km/h (2 Bft) 96,41 %
11.08.2017 04:00 13,6 C 22,9 C 92 % 1014,1 hPa 0,0 l/m 4,7 km/h (1 Bft) W-SW 0,00 h 0,000 mm 0,0 UV-I 0 W/m 12,3 C 13,4 C 8,4 km/h (2 Bft) 99,58 %
11.08.2017 05:00 13,1 C 22,8 C 92 % 1014,1 hPa 0,0 l/m 11,0 km/h (2 Bft) W-SW 0,00 h 0,000 mm 0,0 UV-I 0 W/m 11,8 C 10,6 C 17,4 km/h (3 Bft) 98,38 %
11.08.2017 06:00 12,7 C 22,8 C 94 % 1014,1 hPa 0,0 l/m 8,8 km/h (2 Bft) W-SW 0,00 h 0,025 mm 0,0 UV-I 7 W/m 11,8 C 11,1 C 14,2 km/h (3 Bft) 98,01 %
11.08.2017 07:00 12,9 C 22,8 C 94 % 1013,9 hPa 2,8 l/m 6,5 km/h (2 Bft) S-SW 0,00 h 0,000 mm 0,0 UV-I 16 W/m 11,9 C 12,0 C 11,6 km/h (2 Bft) 97,38 %
11.08.2017 08:00 12,7 C 22,2 C 95 % 1014,1 hPa 1,6 l/m 7,1 km/h (2 Bft) W-SW 0,00 h 0,026 mm 0,7 UV-I 79 W/m 11,9 C 11,7 C 11,8 km/h (2 Bft) 99,60 %
11.08.2017 09:00 13,4 C 22,2 C 94 % 1013,7 hPa 0,0 l/m 7,6 km/h (2 Bft) W-SW 0,00 h 0,050 mm 0,7 UV-I 91 W/m 12,4 C 12,4 C 12,5 km/h (3 Bft) 97,59 %
11.08.2017 10:00 13,3 C 22,2 C 94 % 1013,3 hPa 1,6 l/m 7,0 km/h (2 Bft) S-SW 0,00 h 0,051 mm 0,5 UV-I 38 W/m 12,3 C 12,3 C 12,0 km/h (2 Bft) 97,42 %
11.08.2017 11:00 12,8 C 22,2 C 95 % 1013,1 hPa 15,0 l/m 6,1 km/h (2 Bft) W-SW 0,00 h 0,026 mm 0,1 UV-I 32 W/m 12,0 C 12,1 C 10,2 km/h (2 Bft) 97,76 %
11.08.2017 12:00 13,4 C 22,1 C 96 % 1013,3 hPa 0,0 l/m 7,7 km/h (2 Bft) W-SW 0,00 h 0,025 mm 0,6 UV-I 89 W/m 12,7 C 12,3 C 12,7 km/h (3 Bft) 99,43 %
11.08.2017 13:00 13,5 C 21,7 C 95 % 1013,5 hPa 1,8 l/m 12,4 km/h (3 Bft) W-SW 0,00 h 0,051 mm 1,4 UV-I 56 W/m 12,8 C 10,5 C 19,0 km/h (3 Bft) 98,12 %
11.08.2017 14:00 14,7 C 21,7 C 93 % 1013,1 hPa 0,0 l/m 3,0 km/h (1 Bft) W-SW 0,23 h 0,051 mm 2,4 UV-I 345 W/m 13,6 C 14,5 C 6,6 km/h (2 Bft) 97,17 %
11.08.2017 15:00 15,4 C 21,9 C 89 % 1014,1 hPa 0,2 l/m 13,6 km/h (3 Bft) W-SW 0,07 h 0,177 mm 1,3 UV-I 199 W/m 13,6 C 12,2 C 21,1 km/h (4 Bft) 97,18 %
11.08.2017 16:00 14,6 C 21,7 C 91 % 1014,1 hPa 0,6 l/m 9,3 km/h (2 Bft) W-SW 0,00 h 0,127 mm 0,7 UV-I 128 W/m 13,1 C 13,0 C 14,4 km/h (3 Bft) 99,56 %
11.08.2017 17:00 15,7 C 21,7 C 89 % 1014,5 hPa 0,0 l/m 10,0 km/h (2 Bft) W 0,33 h 0,077 mm 0,8 UV-I 262 W/m 14,0 C 14,0 C 16,3 km/h (3 Bft) 98,44 %
11.08.2017 18:00 15,8 C 21,7 C 85 % 1014,2 hPa 0,0 l/m 9,5 km/h (2 Bft) W-SW 0,37 h 0,152 mm 0,5 UV-I 160 W/m 13,3 C 14,3 C 15,3 km/h (3 Bft) 97,79 %
11.08.2017 19:00 15,2 C 21,7 C 87 % 1014,7 hPa 0,0 l/m 10,0 km/h (2 Bft) W-SW 0,00 h 0,102 mm 0,0 UV-I 27 W/m 13,0 C 13,4 C 15,5 km/h (3 Bft) 97,13 %
11.08.2017 20:00 14,7 C 21,7 C 86 % 1014,9 hPa 0,0 l/m 10,7 km/h (2 Bft) W-SW 0,03 h 0,025 mm 0,0 UV-I 9 W/m 12,4 C 12,4 C 16,2 km/h (3 Bft) 99,52 %
11.08.2017 21:00 13,7 C 21,7 C 88 % 1015,5 hPa 0,0 l/m 7,6 km/h (2 Bft) W-SW 0,00 h 0,025 mm 0,0 UV-I 0 W/m 11,8 C 12,8 C 12,6 km/h (3 Bft) 98,11 %
11.08.2017 22:00 13,1 C 21,2 C 89 % 1015,9 hPa 0,0 l/m 3,3 km/h (1 Bft) W-SW 0,00 h 0,026 mm 0,0 UV-I 0 W/m 11,3 C 13,1 C 5,8 km/h (2 Bft) 97,78 %
11.08.2017 23:00 12,8 C 21,1 C 91 % 1016,0 hPa 0,0 l/m 9,8 km/h (2 Bft) W-SW 0,00 h 0,000 mm 0,0 UV-I 0 W/m 11,3 C 10,7 C 14,3 km/h (3 Bft) 97,55 %
12.08.2017 00:00 12,6 C 21,1 C 91 % 1016,1 hPa 0,0 l/m 6,3 km/h (2 Bft) SW 0,00 h 0,000 mm 0,0 UV-I 0 W/m 11,2 C 12,4 C 10,2 km/h (2 Bft) 99,54 %
12.08.2017 01:00 12,5 C 21,1 C 92 % 1016,1 hPa 0,0 l/m 8,5 km/h (2 Bft) SW 0,00 h 0,000 mm 0,0 UV-I 0 W/m 11,2 C 11,2 C 14,2 km/h (3 Bft) 97,75 %
12.08.2017 02:00 13,3 C 20,9 C 90 % 1016,1 hPa 0,0 l/m 12,8 km/h (3 Bft) SW 0,00 h 0,000 mm 0,0 UV-I 0 W/m 11,6 C 10,0 C 18,8 km/h (3 Bft) 97,24 %
12.08.2017 03:00 13,8 C 20,6 C 88 % 1016,0 hPa 0,0 l/m 12,9 km/h (3 Bft) SW 0,00 h 0,025 mm 0,0 UV-I 0 W/m 11,8 C 10,5 C 19,4 km/h (3 Bft) 98,14 %
12.08.2017 04:00 13,8 C 20,6 C 89 % 1016,1 hPa 0,0 l/m 14,5 km/h (3 Bft) SW 0,00 h 0,026 mm 0,0 UV-I 0 W/m 11,9 C 10,0 C 21,9 km/h (4 Bft) 99,48 %
12.08.2017 05:00 13,5 C 20,6 C 90 % 1016,2 hPa 0,0 l/m 12,9 km/h (3 Bft) SW 0,00 h 0,025 mm 0,0 UV-I 5 W/m 12,0 C 10,2 C 20,3 km/h (4 Bft) 97,60 %
12.08.2017 06:00 13,5 C 20,6 C 92 % 1016,4 hPa 0,0 l/m 10,4 km/h (2 Bft) W-SW 0,03 h 0,026 mm 0,0 UV-I 34 W/m 12,2 C 11,2 C 16,8 km/h (3 Bft) 97,14 %
12.08.2017 07:00 13,9 C 20,6 C 91 % 1016,7 hPa 0,0 l/m 10,7 km/h (2 Bft) W-SW 0,10 h 0,025 mm 0,5 UV-I 109 W/m 12,5 C 11,7 C 16,8 km/h (3 Bft) 98,26 %
12.08.2017 08:00 14,8 C 20,6 C 86 % 1017,3 hPa 0,0 l/m 12,0 km/h (2 Bft) W-SW 0,63 h 0,076 mm 0,8 UV-I 264 W/m 12,4 C 12,1 C 19,7 km/h (3 Bft) 99,80 %
12.08.2017 09:00 15,0 C 20,3 C 82 % 1017,8 hPa 0,0 l/m 7,3 km/h (2 Bft) W 0,10 h 0,153 mm 0,9 UV-I 155 W/m 11,9 C 14,3 C 12,9 km/h (3 Bft) 97,44 %
12.08.2017 10:00 16,1 C 20,6 C 77 % 1018,0 hPa 0,0 l/m 8,0 km/h (2 Bft) SW 0,37 h 0,101 mm 1,8 UV-I 345 W/m 12,1 C 15,1 C 14,4 km/h (3 Bft) 98,04 %
12.08.2017 11:00 16,4 C 20,6 C 76 % 1018,0 hPa 0,0 l/m 9,7 km/h (2 Bft) W-SW 0,17 h 0,203 mm 2,2 UV-I 335 W/m 12,0 C 14,8 C 16,8 km/h (3 Bft) 98,22 %
12.08.2017 12:00 17,0 C 20,6 C 74 % 1018,2 hPa 0,0 l/m 10,0 km/h (2 Bft) W-SW 0,23 h 0,229 mm 2,3 UV-I 365 W/m 12,2 C 15,3 C 17,0 km/h (3 Bft) 98,93 %
12.08.2017 13:00 15,1 C 20,6 C 85 % 1018,7 hPa 0,2 l/m 7,7 km/h (2 Bft) W-SW 0,00 h 0,229 mm 1,2 UV-I 174 W/m 12,5 C 14,1 C 14,1 km/h (3 Bft) 97,68 %
12.08.2017 14:00 16,4 C 20,6 C 84 % 1018,6 hPa 0,0 l/m 8,0 km/h (2 Bft) W-SW 0,50 h 0,101 mm 3,2 UV-I 475 W/m 13,8 C 15,6 C 14,3 km/h (3 Bft) 97,14 %
12.08.2017 15:00 18,1 C 20,7 C 77 % 1018,3 hPa 0,0 l/m 10,4 km/h (2 Bft) SW 0,47 h 0,280 mm 2,6 UV-I 476 W/m 14,1 C 16,5 C 16,7 km/h (3 Bft) 98,54 %
12.08.2017 16:00 17,6 C 21,0 C 74 % 1018,3 hPa 0,0 l/m 5,2 km/h (1 Bft) W-SW 0,07 h 0,304 mm 0,6 UV-I 72 W/m 12,9 C 17,3 C 11,6 km/h (2 Bft) 98,74 %
12.08.2017 17:00 15,1 C 20,6 C 84 % 1018,9 hPa 0,4 l/m 7,3 km/h (2 Bft) W-SW 0,00 h 0,051 mm 0,0 UV-I 43 W/m 12,4 C 14,1 C 13,6 km/h (3 Bft) 98,35 %
12.08.2017 18:00 14,6 C 20,6 C 87 % 1018,8 hPa 0,0 l/m 7,9 km/h (2 Bft) SW 0,00 h 0,051 mm 0,0 UV-I 54 W/m 12,4 C 13,7 C 12,1 km/h (2 Bft) 97,00 %
12.08.2017 19:00 14,9 C 20,6 C 87 % 1018,6 hPa 0,0 l/m 6,2 km/h (2 Bft) SW 0,30 h 0,051 mm 0,0 UV-I 54 W/m 12,8 C 14,8 C 9,4 km/h (2 Bft) 98,86 %
12.08.2017 20:00 15,3 C 20,6 C 87 % 1018,5 hPa 0,0 l/m 9,8 km/h (2 Bft) SW 0,10 h 0,051 mm 0,0 UV-I 10 W/m 13,0 C 13,6 C 15,0 km/h (3 Bft) 98,71 %
12.08.2017 21:00 15,2 C 20,6 C 85 % 1019,0 hPa 0,0 l/m 7,7 km/h (2 Bft) SW 0,00 h 0,025 mm 0,0 UV-I 0 W/m 12,7 C 14,4 C 12,5 km/h (3 Bft) 97,43 %
12.08.2017 22:00 15,4 C 20,6 C 82 % 1019,3 hPa 0,0 l/m 8,4 km/h (2 Bft) SW 0,00 h 0,025 mm 0,0 UV-I 0 W/m 12,4 C 14,4 C 13,3 km/h (3 Bft) 98,06 %
12.08.2017 23:00 15,7 C 20,1 C 80 % 1018,9 hPa 0,0 l/m 13,0 km/h (3 Bft) SW 0,00 h 0,026 mm 0,0 UV-I 0 W/m 12,3 C 12,8 C 20,1 km/h (4 Bft) 98,70 %
13.08.2017 00:00 15,7 C 20,0 C 79 % 1019,0 hPa 0,0 l/m 14,3 km/h (3 Bft) W-SW 0,00 h 0,000 mm 0,0 UV-I 0 W/m 12,2 C 12,3 C 21,7 km/h (4 Bft) 99,20 %
13.08.2017 01:00 15,8 C 20,0 C 80 % 1019,1 hPa 0,0 l/m 10,0 km/h (2 Bft) W-SW 0,00 h 0,051 mm 0,0 UV-I 0 W/m 12,4 C 14,0 C 15,6 km/h (3 Bft) 96,71 %
13.08.2017 02:00 15,7 C 20,0 C 81 % 1019,1 hPa 0,0 l/m 12,6 km/h (3 Bft) W-SW 0,00 h 0,025 mm 0,0 UV-I 0 W/m 12,5 C 12,9 C 18,4 km/h (3 Bft) 97,32 %
13.08.2017 03:00 15,3 C 20,0 C 85 % 1019,3 hPa 0,0 l/m 12,1 km/h (2 Bft) W-SW 0,00 h 0,026 mm 0,0 UV-I 0 W/m 12,7 C 12,6 C 18,3 km/h (3 Bft) 98,39 %
13.08.2017 04:00 14,9 C 20,0 C 87 % 1019,4 hPa 0,0 l/m 12,9 km/h (3 Bft) W-SW 0,00 h 0,025 mm 0,0 UV-I 0 W/m 12,8 C 11,8 C 19,5 km/h (3 Bft) 98,84 %
13.08.2017 05:00 14,8 C 19,6 C 88 % 1019,4 hPa 0,0 l/m 11,5 km/h (2 Bft) SW 0,00 h 0,025 mm 0,0 UV-I 5 W/m 12,8 C 12,4 C 18,6 km/h (3 Bft) 97,24 %
13.08.2017 06:00 14,9 C 19,4 C 87 % 1019,5 hPa 0,0 l/m 10,7 km/h (2 Bft) W-SW 0,00 h 0,026 mm 0,0 UV-I 16 W/m 12,8 C 12,7 C 16,2 km/h (3 Bft) 97,85 %
13.08.2017 07:00 15,4 C 19,4 C 87 % 1019,8 hPa 0,0 l/m 5,6 km/h (1 Bft) W-SW 0,00 h 0,025 mm 0,0 UV-I 78 W/m 13,2 C 15,1 C 9,1 km/h (2 Bft) 98,17 %
13.08.2017 08:00 15,9 C 19,4 C 84 % 1020,0 hPa 0,0 l/m 7,7 km/h (2 Bft) W-SW 0,00 h 0,051 mm 0,5 UV-I 101 W/m 13,1 C 15,0 C 12,6 km/h (3 Bft) 98,99 %
13.08.2017 09:00 16,5 C 19,4 C 83 % 1020,3 hPa 0,0 l/m 5,2 km/h (1 Bft) W-SW 0,00 h 0,076 mm 1,0 UV-I 201 W/m 13,6 C 16,4 C 9,2 km/h (2 Bft) 97,51 %
13.08.2017 10:00 17,4 C 19,4 C 80 % 1020,4 hPa 0,0 l/m 5,6 km/h (1 Bft) W-SW 0,17 h 0,127 mm 1,6 UV-I 264 W/m 13,9 C 17,1 C 10,6 km/h (2 Bft) 96,88 %
13.08.2017 11:00 18,3 C 20,0 C 77 % 1020,4 hPa 0,0 l/m 6,9 km/h (2 Bft) W 0,33 h 0,153 mm 2,9 UV-I 398 W/m 14,1 C 17,8 C 12,9 km/h (3 Bft) 98,52 %
13.08.2017 12:00 19,0 C 20,0 C 76 % 1020,2 hPa 0,0 l/m 4,1 km/h (1 Bft) W 0,07 h 0,228 mm 3,2 UV-I 345 W/m 14,7 C 19,0 C 8,6 km/h (2 Bft) 98,88 %
13.08.2017 13:00 19,7 C 20,0 C 74 % 1020,0 hPa 0,0 l/m 3,0 km/h (1 Bft) W-NW 0,10 h 0,254 mm 2,9 UV-I 348 W/m 15,0 C 19,7 C 6,9 km/h (2 Bft) 98,81 %
13.08.2017 14:00 19,8 C 20,1 C 77 % 1019,8 hPa 0,0 l/m 3,2 km/h (1 Bft) N 0,37 h 0,203 mm 3,5 UV-I 464 W/m 15,7 C 19,8 C 6,8 km/h (2 Bft) 96,24 %
13.08.2017 15:00 20,7 C 20,6 C 72 % 1019,5 hPa 0,0 l/m 3,0 km/h (1 Bft) W-SW 0,38 h 0,280 mm 2,9 UV-I 394 W/m 15,5 C 20,7 C 6,5 km/h (2 Bft) 98,61 %
13.08.2017 16:00 21,5 C 20,6 C 68 % 1019,3 hPa 0,0 l/m 3,8 km/h (1 Bft) NW 0,67 h 0,228 mm 2,3 UV-I 426 W/m 15,4 C 21,5 C 8,3 km/h (2 Bft) 98,53 %
13.08.2017 17:00 21,7 C 20,6 C 67 % 1019,4 hPa 0,0 l/m 2,9 km/h (1 Bft) W-NW 0,80 h 0,280 mm 1,3 UV-I 363 W/m 15,4 C 21,7 C 6,5 km/h (2 Bft) 99,11 %
13.08.2017 18:00 21,7 C 21,0 C 66 % 1019,2 hPa 0,0 l/m 2,7 km/h (1 Bft) W-SW 1,00 h 0,228 mm 0,7 UV-I 225 W/m 14,9 C 21,7 C 6,7 km/h (2 Bft) 96,88 %
13.08.2017 19:00 19,7 C 20,9 C 75 % 1019,4 hPa 0,0 l/m 0,6 km/h (0 Bft) W-SW 0,00 h 0,153 mm 0,0 UV-I 31 W/m 15,1 C 19,7 C 1,5 km/h (1 Bft) 97,06 %
13.08.2017 20:00 17,4 C 20,6 C 86 % 1019,7 hPa 0,0 l/m 1,2 km/h (1 Bft) W-SW 0,17 h 0,025 mm 0,0 UV-I 11 W/m 14,9 C 17,4 C 2,5 km/h (1 Bft) 98,31 %
13.08.2017 21:00 16,1 C 20,6 C 89 % 1020,1 hPa 0,0 l/m 0,3 km/h (0 Bft) W-SW 0,00 h 0,000 mm 0,0 UV-I 0 W/m 14,3 C 16,1 C 0,9 km/h (0 Bft) 98,90 %
13.08.2017 22:00 15,5 C 20,6 C 90 % 1020,3 hPa 0,0 l/m 1,0 km/h (0 Bft) S-SW 0,00 h 0,000 mm 0,0 UV-I 0 W/m 13,8 C 15,5 C 2,3 km/h (1 Bft) 96,57 %
13.08.2017 23:00 15,1 C 20,6 C 91 % 1020,4 hPa 0,0 l/m 2,2 km/h (1 Bft) S-SW 0,00 h 0,000 mm 0,0 UV-I 0 W/m 13,6 C 15,1 C 3,7 km/h (1 Bft) 98,21 %
Min-Datum _ 12.08.17 13.08.17 07.08.17 08.08.17 - 07.08.17 - - - - - 12.08.17 10.08.17 07.08.17 08.08.17
_ Min-Zeit 00:48 05:08 14:14 16:56 - 00:14 - - - - - 00:48 23:44 00:14 00:02
Minimum _ 12,4 C 19,4 C 52 % 1008,3 hPa - 0,0 km/h (0 Bft) - - - - - 11,0 C 7,2 C 0,0 km/h (0 Bft) 12,50 %
Max-Datum _ 09.08.17 07.08.17 07.08.17 07.08.17 11.08.17 08.08.17 - 08.08.17 07.08.17 08.08.17 12.08.17 09.08.17 09.08.17 08.08.17 07.08.17
_ Max-Zeit 17:04 14:52 00:00 01:14 11:14 23:36 - 06:30 14:00 12:44 12:06 18:32 18:32 23:36 00:00
Maximum _ 28,3 C 25,0 C 97 % 1022,3 hPa 15,0 l/m 36,3 km/h
W-SW (5 Bft)
- 0,07 h 0,635 mm 6,3 UV-I 1099 W/m 19,9 C 28,2 C 57,9 km/h
W-SW (7 Bft)
100,00 %
Durchschnitt _ 18,0 C 22,7 C 81 % 1015,5 hPa #34,0 l/m 8,9 km/h (2 Bft) W-SW #45:48 h #23,393 mm 2,3 UV-I 280 W/m 14,6 C 16,8 C 14,0 km/h (3 Bft) 98,13 %